Terminal Aerodrome Forecast
Issued by NWS Wilmington, NC

Home | Current Version | Previous Version | Text Only | Print | Product List | Glossary On
Versions: 1 2 3 4 5 6 7 8 9 10 11 12 13 14
000
FTUS42 KILM 310900 AAA
TAFFLO
TAF AMD
KFLO 310903Z 3109/0106 06004KT P6SM BKN100
     FM311500 10008KT P6SM FEW040 SCT080 BKN200
     FM010000 08004KT P6SM FEW025 SCT250=

USA.gov is the U.S. government's official web portal to all federal, state and local government web resources and services.